MyTimes logo

TIMES

Webb Imagery

6/02/2016
Cowes Classic
500m Swim / 4.0km Run - Local Residents

(Click on competitor name to view personalised results)

Name
Race #
Category
Time
(h:mm:ss)
Avg Speed
km/hr
OAll
Place
Cat
Place
ROWE Mark#572Local Senior Male0:21:13"12.7 " 11
TILLEY Justin#720Local Team0:21:15"12.7 " 21
PLANT Luke#539Local Senior Male0:21:30"12.6 " 32
FLEISNER Rob#373Local 50+ Male0:21:57"12.3 " 41
HETEBRUEG Andre#550Local Senior Male0:22:54"11.8 " 53
GARRECT Geoff#378Local 40-49 Male0:23:16"11.6 " 61
HUGHES Xavier#523Local Senior Male0:23:31"11.5 " 74
GRACE Jude#709Local Junior Team0:23:43"11.4 " 81
BOND Marcus#306Local 40-49 Male0:23:59"11.3 " 92
LANDELLS Kara#576Local Senior Female0:24:12"11.2 " 101
ROLLAND Thierry#318Local 50+ Male0:24:14"11.1 " 112
HERBERT Duncan#331Local 40-49 Male0:24:28"11.0 " 123
HARRIS Kris#315Local 40-49 Male0:24:44"10.9 " 134
MATTHEWS Jack#530Local Senior Male0:24:48"10.9 " 145
ANDERSON Brodie#368Local Junior Male0:24:48"10.9 " 151
LITHGOW Eddie#703Local Team0:25:11"10.7 " 162
HORTON Greg#707Local Team0:25:14"10.7 " 173
MCCALL Rod#319Local 50+ Male0:25:14"10.7 " 183
CHISHOLM Andy#725Local Team0:25:15"10.7 " 194
MAHON Debb#557Local Senior Female0:25:31"10.6 " 202
TYRRELL Sarah#723Local Team0:25:33"10.6 " 215
O'NEILL Kelly#714Local Team0:25:37"10.5 " 226
ONLEY Thomas#564Local Senior Male0:25:56"10.4 " 236
SUTHERLAND Bailey#390Local Junior Male0:26:01"10.4 " 242
WILSON-BROWNE Dylan#344Local Junior Male0:26:07"10.3 " 253
GORSUCH Scott#752Local Team0:26:32"10.2 " 267
HUGHES Olivia#326Local Junior Female0:26:48"10.1 " 271
WYNEN John#728Local Team0:26:54"10.0 " 288
HUGHES Ella#323Local Junior Female0:27:46"9.7 " 292
COLLETT Ollie#320Local Junior Male0:27:49"9.7 " 304
LANGFORD Imigen#348Local Junior Female0:28:00"9.6 " 313
FENWICK Ryan#546Local Senior Male0:28:08"9.6 " 327
JOHNSTON Tessa#742Local Team0:28:09"9.6 " 339
COX Jessica#531Local Senior Female0:28:20"9.5 " 343
O'HEA Rory#733Local Team0:28:25"9.5 " 3510
HUGHES Sophia#327Local Junior Female0:28:31"9.5 " 364
VANDERKOLK Mayson#332Local Junior Female0:28:33"9.5 " 375
HUGHES Holly#322Local Junior Female0:29:11"9.3 " 386
PAYNE India#741Local Team0:29:17"9.2 " 3911
MANNING Belinda#727Local Team0:29:23"9.2 " 4012
JUDD Alex#551Local Senior Male0:29:27"9.2 " 418
MC FEE Patricia#749Local Team0:29:47"9.1 " 4213
BROWN Sean#389Local 40-49 Male0:30:01"9.0 " 435
MOORE Emma#388Local 40-49 Female0:30:04"9.0 " 441
MARSHALL Sarah#366Local 40-49 Female0:30:16"8.9 " 452
DALLINGER Chris#577Local Senior Male0:30:31"8.8 " 469
LINDSAY Heather#329Local 40-49 Female0:30:42"8.8 " 473
MCDONALD Kellie#312Local 40-49 Female0:30:42"8.8 " 484
TAYLOR Sarah#724Local Team0:31:38"8.5 " 4914
MOXEY Ashlee#387Local Junior Female0:31:49"8.5 " 507
THOMPSON Jorgie Mae#333Local Junior Female0:32:07"8.4 " 518
DRENNAN Mandy#712Local Team0:32:13"8.4 " 5215
O'DONAHUE Mark#383Local 50+ Male0:32:20"8.4 " 534
FINCHER Rebeka#338Local 40-49 Female0:32:26"8.3 " 545
BROWN Rob#713Local Team0:32:46"8.2 " 5516
TEMPLAR Natalie#535Local Senior Female0:32:47"8.2 " 564
DICKIE Bonny#385Local Junior Female0:32:51"8.2 " 579
WHELLER Lawrence#353Local 50+ Male0:32:51"8.2 " 585
HERRINGTON Suzie#316Local 40-49 Female0:32:56"8.2 " 596
HOLLAND Greg#746Local Team0:33:34"8.0 " 6017
VAN DER HEYDEN Natalie#532Local Senior Female0:34:26"7.8 " 615
ROOKS Bhavani#324Local 50+ Female0:34:32"7.8 " 621
MANNING Simon#753Local Team0:35:02"7.7 " 6318
THOMAS Edwina#545Local Senior Female0:35:31"7.6 " 646
CLEELAND Mike#738Local Team0:36:07"7.5 " 6519
WRIGHT Phil#392Local 50+ Male0:36:24"7.4 " 666
HOLLINS Jenny#311Local 40-49 Female0:36:36"7.4 " 677
HUNTER Jess#565Local Senior Female0:36:49"7.3 " 687
CAMPOGRANDE Lucie#528Local Senior Female0:45:03 6 698